sensor_id;sensor_type;location;lat;lon;timestamp;pressure;altitude;pressure_sealevel;temperature;humidity
68634;BME280;55625;47.072;22.192;2024-02-26T00:00:12;99031.03;;;7.72;100.00
68634;BME280;55625;47.072;22.192;2024-02-26T00:02:38;99029.47;;;7.71;100.00
68634;BME280;55625;47.072;22.192;2024-02-26T00:05:07;99026.41;;;7.78;100.00
68634;BME280;55625;47.072;22.192;2024-02-26T00:07:33;99028.78;;;7.80;100.00
68634;BME280;55625;47.072;22.192;2024-02-26T00:09:59;99026.97;;;7.86;100.00
68634;BME280;55625;47.072;22.192;2024-02-26T00:12:25;99027.97;;;7.92;100.00
68634;BME280;55625;47.072;22.192;2024-02-26T00:14:51;99025.94;;;7.93;100.00
68634;BME280;55625;47.072;22.192;2024-02-26T00:17:18;99023.69;;;7.88;100.00
68634;BME280;55625;47.072;22.192;2024-02-26T00:19:44;99020.41;;;7.89;100.00
68634;BME280;55625;47.072;22.192;2024-02-26T00:22:10;99017.13;;;7.91;100.00
68634;BME280;55625;47.072;22.192;2024-02-26T00:24:36;99016.81;;;8.01;100.00
68634;BME280;55625;47.072;22.192;2024-02-26T00:27:02;99017.00;;;7.94;100.00
68634;BME280;55625;47.072;22.192;2024-02-26T00:29:28;99016.56;;;7.96;100.00
68634;BME280;55625;47.072;22.192;2024-02-26T00:31:54;99008.09;;;7.96;100.00
68634;BME280;55625;47.072;22.192;2024-02-26T00:34:20;99015.34;;;7.97;100.00
68634;BME280;55625;47.072;22.192;2024-02-26T00:36:46;99014.09;;;7.98;100.00
68634;BME280;55625;47.072;22.192;2024-02-26T00:39:12;99003.34;;;7.93;100.00
68634;BME280;55625;47.072;22.192;2024-02-26T00:41:41;99022.56;;;7.98;99.98
68634;BME280;55625;47.072;22.192;2024-02-26T00:44:07;99012.28;;;8.04;99.73
68634;BME280;55625;47.072;22.192;2024-02-26T00:46:33;99012.41;;;8.00;99.68
68634;BME280;55625;47.072;22.192;2024-02-26T00:48:59;99015.69;;;7.99;99.80
68634;BME280;55625;47.072;22.192;2024-02-26T00:51:26;99005.63;;;7.98;100.00
68634;BME280;55625;47.072;22.192;2024-02-26T00:53:52;99010.03;;;7.99;99.26
68634;BME280;55625;47.072;22.192;2024-02-26T00:56:18;99010.69;;;8.03;99.16
68634;BME280;55625;47.072;22.192;2024-02-26T00:58:44;99034.53;;;8.02;99.48
68634;BME280;55625;47.072;22.192;2024-02-26T01:01:44;99030.47;;;8.03;98.84
68634;BME280;55625;47.072;22.192;2024-02-26T01:04:10;99031.94;;;7.95;99.83
68634;BME280;55625;47.072;22.192;2024-02-26T01:06:36;99034.31;;;7.84;100.00
68634;BME280;55625;47.072;22.192;2024-02-26T01:09:02;99024.84;;;7.77;100.00
68634;BME280;55625;47.072;22.192;2024-02-26T01:11:28;99034.09;;;7.78;100.00
68634;BME280;55625;47.072;22.192;2024-02-26T01:13:53;99030.25;;;7.72;100.00
68634;BME280;55625;47.072;22.192;2024-02-26T01:16:23;99024.28;;;7.70;100.00
68634;BME280;55625;47.072;22.192;2024-02-26T01:18:49;99025.06;;;7.70;100.00
68634;BME280;55625;47.072;22.192;2024-02-26T01:21:15;99034.66;;;7.73;100.00
68634;BME280;55625;47.072;22.192;2024-02-26T01:23:41;99031.38;;;7.74;100.00
68634;BME280;55625;47.072;22.192;2024-02-26T01:26:08;99024.50;;;7.75;100.00
68634;BME280;55625;47.072;22.192;2024-02-26T01:28:34;99024.84;;;7.77;100.00
68634;BME280;55625;47.072;22.192;2024-02-26T01:31:00;99015.69;;;7.73;100.00
68634;BME280;55625;47.072;22.192;2024-02-26T01:33:26;99017.25;;;7.62;100.00
68634;BME280;55625;47.072;22.192;2024-02-26T01:35:52;99017.25;;;7.49;100.00
68634;BME280;55625;47.072;22.192;2024-02-26T01:38:19;99014.66;;;7.42;100.00
68634;BME280;55625;47.072;22.192;2024-02-26T01:40:45;99007.63;;;7.34;100.00
68634;BME280;55625;47.072;22.192;2024-02-26T01:43:11;99002.97;;;7.27;100.00
68634;BME280;55625;47.072;22.192;2024-02-26T01:45:36;99005.56;;;7.22;100.00
68634;BME280;55625;47.072;22.192;2024-02-26T01:48:03;99002.06;;;7.18;100.00
68634;BME280;55625;47.072;22.192;2024-02-26T01:50:29;98992.34;;;7.19;100.00
68634;BME280;55625;47.072;22.192;2024-02-26T01:52:55;99000.03;;;7.18;100.00
68634;BME280;55625;47.072;22.192;2024-02-26T01:55:24;98996.19;;;7.12;100.00
68634;BME280;55625;47.072;22.192;2024-02-26T01:57:50;98995.63;;;7.04;100.00
68634;BME280;55625;47.072;22.192;2024-02-26T02:00:19;98985.31;;;6.98;100.00
68634;BME280;55625;47.072;22.192;2024-02-26T02:02:46;98998.38;;;6.92;100.00
68634;BME280;55625;47.072;22.192;2024-02-26T02:05:15;98984.03;;;6.86;100.00
68634;BME280;55625;47.072;22.192;2024-02-26T02:07:44;98991.47;;;6.80;100.00
68634;BME280;55625;47.072;22.192;2024-02-26T02:10:11;98986.47;;;6.71;100.00
68634;BME280;55625;47.072;22.192;2024-02-26T02:12:37;98982.97;;;6.67;100.00
68634;BME280;55625;47.072;22.192;2024-02-26T02:15:06;98980.25;;;6.64;100.00
68634;BME280;55625;47.072;22.192;2024-02-26T02:17:32;98985.97;;;6.60;100.00
68634;BME280;55625;47.072;22.192;2024-02-26T02:19:58;98989.13;;;6.62;100.00
68634;BME280;55625;47.072;22.192;2024-02-26T02:22:24;99002.34;;;6.65;100.00
68634;BME280;55625;47.072;22.192;2024-02-26T02:24:52;98996.59;;;6.69;100.00
68634;BME280;55625;47.072;22.192;2024-02-26T02:27:19;98999.75;;;6.71;100.00
68634;BME280;55625;47.072;22.192;2024-02-26T02:29:46;99002.50;;;6.74;100.00
68634;BME280;55625;47.072;22.192;2024-02-26T02:32:14;98999.31;;;6.72;100.00
68634;BME280;55625;47.072;22.192;2024-02-26T02:34:40;98994.34;;;6.64;100.00
68634;BME280;55625;47.072;22.192;2024-02-26T02:37:07;98998.03;;;6.61;100.00
68634;BME280;55625;47.072;22.192;2024-02-26T02:39:32;99004.91;;;6.60;100.00
68634;BME280;55625;47.072;22.192;2024-02-26T02:41:58;98989.34;;;6.55;100.00
68634;BME280;55625;47.072;22.192;2024-02-26T02:44:24;98989.34;;;6.55;100.00
68634;BME280;55625;47.072;22.192;2024-02-26T02:46:50;98995.44;;;6.53;100.00
68634;BME280;55625;47.072;22.192;2024-02-26T02:49:19;99001.25;;;6.46;100.00
68634;BME280;55625;47.072;22.192;2024-02-26T02:51:45;98998.09;;;6.44;100.00
68634;BME280;55625;47.072;22.192;2024-02-26T02:54:11;98998.97;;;6.41;100.00
68634;BME280;55625;47.072;22.192;2024-02-26T02:56:37;99000.53;;;6.42;100.00
68634;BME280;55625;47.072;22.192;2024-02-26T02:59:03;98993.25;;;6.45;100.00
68634;BME280;55625;47.072;22.192;2024-02-26T03:01:29;98994.63;;;6.53;100.00
68634;BME280;55625;47.072;22.192;2024-02-26T03:03:55;99001.06;;;6.53;100.00
68634;BME280;55625;47.072;22.192;2024-02-26T03:06:21;99003.88;;;6.53;100.00
68634;BME280;55625;47.072;22.192;2024-02-26T03:08:47;99007.94;;;6.52;100.00
68634;BME280;55625;47.072;22.192;2024-02-26T03:11:14;99007.25;;;6.48;100.00
68634;BME280;55625;47.072;22.192;2024-02-26T03:13:41;98999.22;;;6.47;100.00
68634;BME280;55625;47.072;22.192;2024-02-26T03:16:07;98996.13;;;6.41;100.00
68634;BME280;55625;47.072;22.192;2024-02-26T03:18:33;98997.03;;;6.38;100.00
68634;BME280;55625;47.072;22.192;2024-02-26T03:21:00;98999.59;;;6.33;100.00
68634;BME280;55625;47.072;22.192;2024-02-26T03:23:26;98992.81;;;6.30;100.00
68634;BME280;55625;47.072;22.192;2024-02-26T03:25:52;98991.94;;;6.33;100.00
68634;BME280;55625;47.072;22.192;2024-02-26T03:28:18;98988.66;;;6.35;100.00
68634;BME280;55625;47.072;22.192;2024-02-26T03:30:44;98993.16;;;6.32;100.00
68634;BME280;55625;47.072;22.192;2024-02-26T03:33:09;98993.88;;;6.36;100.00
68634;BME280;55625;47.072;22.192;2024-02-26T03:35:36;98998.38;;;6.34;100.00
68634;BME280;55625;47.072;22.192;2024-02-26T03:38:01;98996.88;;;6.29;100.00
68634;BME280;55625;47.072;22.192;2024-02-26T03:40:28;98997.22;;;6.31;100.00
68634;BME280;55625;47.072;22.192;2024-02-26T03:42:54;98997.22;;;6.31;100.00
68634;BME280;55625;47.072;22.192;2024-02-26T03:45:20;98990.34;;;6.32;100.00
68634;BME280;55625;47.072;22.192;2024-02-26T03:47:46;98990.91;;;6.27;100.00
68634;BME280;55625;47.072;22.192;2024-02-26T03:50:12;98996.53;;;6.27;100.00
68634;BME280;55625;47.072;22.192;2024-02-26T03:52:37;98993.72;;;6.27;100.00
68634;BME280;55625;47.072;22.192;2024-02-26T03:55:04;98993.53;;;6.34;100.00
68634;BME280;55625;47.072;22.192;2024-02-26T03:57:30;98990.78;;;6.47;100.00
68634;BME280;55625;47.072;22.192;2024-02-26T03:59:56;98985.72;;;6.54;100.00
68634;BME280;55625;47.072;22.192;2024-02-26T04:02:22;98982.38;;;6.60;100.00
68634;BME280;55625;47.072;22.192;2024-02-26T04:04:49;98987.91;;;6.63;100.00
68634;BME280;55625;47.072;22.192;2024-02-26T04:07:15;98993.66;;;6.60;100.00
68634;BME280;55625;47.072;22.192;2024-02-26T04:09:42;98983.75;;;6.68;100.00
68634;BME280;55625;47.072;22.192;2024-02-26T04:12:09;98984.44;;;6.72;100.00
68634;BME280;55625;47.072;22.192;2024-02-26T04:14:36;98991.25;;;6.74;100.00
68634;BME280;55625;47.072;22.192;2024-02-26T04:17:02;98980.03;;;6.71;100.00
68634;BME280;55625;47.072;22.192;2024-02-26T04:19:28;98985.22;;;6.72;100.00
68634;BME280;55625;47.072;22.192;2024-02-26T04:21:55;98986.63;;;6.80;100.00
68634;BME280;55625;47.072;22.192;2024-02-26T04:24:20;98986.38;;;6.75;100.00
68634;BME280;55625;47.072;22.192;2024-02-26T04:26:46;98984.03;;;6.86;100.00
68634;BME280;55625;47.072;22.192;2024-02-26T04:29:12;98987.75;;;6.83;100.00
68634;BME280;55625;47.072;22.192;2024-02-26T04:31:38;98993.41;;;6.83;100.00
68634;BME280;55625;47.072;22.192;2024-02-26T04:34:05;98993.63;;;6.89;100.00
68634;BME280;55625;47.072;22.192;2024-02-26T04:36:31;98997.59;;;6.91;100.00
68634;BME280;55625;47.072;22.192;2024-02-26T04:38:57;98996.13;;;6.87;100.00
68634;BME280;55625;47.072;22.192;2024-02-26T04:41:23;98982.47;;;6.85;100.00
68634;BME280;55625;47.072;22.192;2024-02-26T04:43:48;98984.50;;;6.84;100.00
68634;BME280;55625;47.072;22.192;2024-02-26T04:46:14;98996.78;;;6.78;100.00
68634;BME280;55625;47.072;22.192;2024-02-26T04:48:40;98991.75;;;6.69;100.00
68634;BME280;55625;47.072;22.192;2024-02-26T04:51:07;98989.34;;;6.55;100.00
68634;BME280;55625;47.072;22.192;2024-02-26T04:53:33;98989.28;;;6.42;100.00
68634;BME280;55625;47.072;22.192;2024-02-26T04:55:59;98992.63;;;6.37;100.00
68634;BME280;55625;47.072;22.192;2024-02-26T04:58:25;98995.44;;;6.37;100.00
68634;BME280;55625;47.072;22.192;2024-02-26T05:00:51;98999.16;;;6.34;100.00
68634;BME280;55625;47.072;22.192;2024-02-26T05:03:17;98994.41;;;6.31;100.00
68634;BME280;55625;47.072;22.192;2024-02-26T05:05:44;98999.69;;;6.29;100.00
68634;BME280;55625;47.072;22.192;2024-02-26T05:08:10;99002.84;;;6.31;100.00
68634;BME280;55625;47.072;22.192;2024-02-26T05:10:37;98996.00;;;6.32;100.00
68634;BME280;55625;47.072;22.192;2024-02-26T05:13:07;98998.25;;;6.37;100.00
68634;BME280;55625;47.072;22.192;2024-02-26T05:15:33;98989.56;;;6.32;100.00
68634;BME280;55625;47.072;22.192;2024-02-26T05:17:59;98992.63;;;6.37;100.00
68634;BME280;55625;47.072;22.192;2024-02-26T05:20:25;98992.97;;;6.39;100.00
68634;BME280;55625;47.072;22.192;2024-02-26T05:22:51;98991.75;;;6.40;100.00
68634;BME280;55625;47.072;22.192;2024-02-26T05:25:18;98987.63;;;6.45;100.00
68634;BME280;55625;47.072;22.192;2024-02-26T05:27:44;98988.41;;;6.45;100.00
68634;BME280;55625;47.072;22.192;2024-02-26T05:30:11;98986.38;;;6.46;100.00
68634;BME280;55625;47.072;22.192;2024-02-26T05:32:37;98992.72;;;6.50;100.00
68634;BME280;55625;47.072;22.192;2024-02-26T05:35:04;98987.31;;;6.56;100.00
68634;BME280;55625;47.072;22.192;2024-02-26T05:37:30;98989.34;;;6.55;100.00
68634;BME280;55625;47.072;22.192;2024-02-26T05:39:56;98999.28;;;6.60;100.00
68634;BME280;55625;47.072;22.192;2024-02-26T05:42:22;99002.13;;;6.72;100.00
68634;BME280;55625;47.072;22.192;2024-02-26T05:44:48;98995.09;;;6.80;100.00
68634;BME280;55625;47.072;22.192;2024-02-26T05:47:14;98990.59;;;6.83;100.00
68634;BME280;55625;47.072;22.192;2024-02-26T05:49:41;98993.31;;;6.99;100.00
68634;BME280;55625;47.072;22.192;2024-02-26T05:52:07;98995.75;;;7.13;100.00
68634;BME280;55625;47.072;22.192;2024-02-26T05:54:33;99000.25;;;7.24;100.00
68634;BME280;55625;47.072;22.192;2024-02-26T05:56:59;98997.94;;;7.35;98.99
68634;BME280;55625;47.072;22.192;2024-02-26T05:59:25;99004.16;;;7.42;98.80
68634;BME280;55625;47.072;22.192;2024-02-26T06:01:51;99003.47;;;7.51;98.24
68634;BME280;55625;47.072;22.192;2024-02-26T06:04:17;99005.28;;;7.58;98.78
68634;BME280;55625;47.072;22.192;2024-02-26T06:06:44;99014.56;;;7.71;97.28
68634;BME280;55625;47.072;22.192;2024-02-26T06:09:11;99008.56;;;7.82;96.88
68634;BME280;55625;47.072;22.192;2024-02-26T06:11:38;99016.34;;;7.90;96.82
68634;BME280;55625;47.072;22.192;2024-02-26T06:14:04;99019.84;;;8.07;95.83
68634;BME280;55625;47.072;22.192;2024-02-26T06:16:30;99019.94;;;8.16;95.31
68634;BME280;55625;47.072;22.192;2024-02-26T06:18:56;99028.41;;;8.29;95.29
68634;BME280;55625;47.072;22.192;2024-02-26T06:21:23;99027.50;;;8.45;94.41
68634;BME280;55625;47.072;22.192;2024-02-26T06:23:49;99039.31;;;8.65;93.79
68634;BME280;55625;47.072;22.192;2024-02-26T06:26:16;99036.63;;;8.83;92.32
68634;BME280;55625;47.072;22.192;2024-02-26T06:28:42;99045.59;;;9.03;91.47
68634;BME280;55625;47.072;22.192;2024-02-26T06:31:08;99035.59;;;9.12;90.51
68634;BME280;55625;47.072;22.192;2024-02-26T06:33:34;99047.19;;;9.05;90.96
68634;BME280;55625;47.072;22.192;2024-02-26T06:36:00;99038.03;;;9.00;90.05
68634;BME280;55625;47.072;22.192;2024-02-26T06:38:26;99045.44;;;9.20;88.88
68634;BME280;55625;47.072;22.192;2024-02-26T06:40:53;99049.16;;;9.17;89.67
68634;BME280;55625;47.072;22.192;2024-02-26T06:43:19;99044.50;;;9.23;89.85
68634;BME280;55625;47.072;22.192;2024-02-26T06:45:44;99043.63;;;9.35;89.30
68634;BME280;55625;47.072;22.192;2024-02-26T06:48:10;99046.97;;;9.43;88.70
68634;BME280;55625;47.072;22.192;2024-02-26T06:50:36;99049.81;;;9.43;89.71
68634;BME280;55625;47.072;22.192;2024-02-26T06:53:02;99053.22;;;9.59;89.00
68634;BME280;55625;47.072;22.192;2024-02-26T06:55:28;99057.06;;;9.75;87.64
68634;BME280;55625;47.072;22.192;2024-02-26T06:57:54;99056.34;;;9.83;87.53
68634;BME280;55625;47.072;22.192;2024-02-26T07:00:20;99063.91;;;10.17;84.46
68634;BME280;55625;47.072;22.192;2024-02-26T07:02:46;99049.47;;;10.34;84.10
68634;BME280;55625;47.072;22.192;2024-02-26T07:05:12;99057.53;;;10.44;83.85
68634;BME280;55625;47.072;22.192;2024-02-26T07:07:38;99056.13;;;10.49;82.49
68634;BME280;55625;47.072;22.192;2024-02-26T07:10:05;99063.72;;;10.70;83.36
68634;BME280;55625;47.072;22.192;2024-02-26T07:12:32;99068.94;;;10.99;81.01
68634;BME280;55625;47.072;22.192;2024-02-26T07:14:58;99060.44;;;10.90;81.26
68634;BME280;55625;47.072;22.192;2024-02-26T07:17:24;99054.59;;;10.94;81.17
68634;BME280;55625;47.072;22.192;2024-02-26T07:19:50;99063.63;;;11.10;81.90
68634;BME280;55625;47.072;22.192;2024-02-26T07:22:16;99052.09;;;11.14;80.83
68634;BME280;55625;47.072;22.192;2024-02-26T07:24:42;99048.59;;;11.28;80.72
68634;BME280;55625;47.072;22.192;2024-02-26T07:27:08;99043.53;;;11.32;80.48
68634;BME280;55625;47.072;22.192;2024-02-26T07:29:34;99047.66;;;11.40;80.48
68634;BME280;55625;47.072;22.192;2024-02-26T07:32:00;99040.19;;;11.52;79.52
68634;BME280;55625;47.072;22.192;2024-02-26T07:34:26;99050.13;;;11.57;77.54
68634;BME280;55625;47.072;22.192;2024-02-26T07:36:56;99050.41;;;11.77;77.31
68634;BME280;55625;47.072;22.192;2024-02-26T07:39:22;99053.22;;;11.95;76.32
68634;BME280;55625;47.072;22.192;2024-02-26T07:41:48;99056.25;;;12.25;76.56
68634;BME280;55625;47.072;22.192;2024-02-26T07:44:17;99049.44;;;12.55;74.74
68634;BME280;55625;47.072;22.192;2024-02-26T07:46:44;99051.16;;;12.62;74.46
68634;BME280;55625;47.072;22.192;2024-02-26T07:49:10;99048.97;;;12.57;73.39
68634;BME280;55625;47.072;22.192;2024-02-26T07:51:36;99047.03;;;12.63;73.06
68634;BME280;55625;47.072;22.192;2024-02-26T07:54:02;99042.66;;;12.77;71.56
68634;BME280;55625;47.072;22.192;2024-02-26T07:56:28;99049.97;;;12.92;72.70
68634;BME280;55625;47.072;22.192;2024-02-26T07:58:54;99050.00;;;13.07;72.78
68634;BME280;55625;47.072;22.192;2024-02-26T08:01:20;99048.50;;;12.97;71.64
68634;BME280;55625;47.072;22.192;2024-02-26T08:03:46;99055.09;;;12.64;73.87
68634;BME280;55625;47.072;22.192;2024-02-26T08:06:12;99059.69;;;12.62;72.67
68634;BME280;55625;47.072;22.192;2024-02-26T08:08:38;99052.28;;;12.55;72.63
68634;BME280;55625;47.072;22.192;2024-02-26T08:11:04;99050.34;;;12.04;74.00
68634;BME280;55625;47.072;22.192;2024-02-26T08:13:30;99049.78;;;11.82;73.49
68634;BME280;55625;47.072;22.192;2024-02-26T08:15:55;99049.03;;;11.63;74.59
68634;BME280;55625;47.072;22.192;2024-02-26T08:18:22;99050.66;;;11.37;76.11
68634;BME280;55625;47.072;22.192;2024-02-26T08:20:47;99051.13;;;10.99;78.71
68634;BME280;55625;47.072;22.192;2024-02-26T08:23:14;99039.16;;;11.04;78.15
68634;BME280;55625;47.072;22.192;2024-02-26T08:25:40;99054.94;;;11.05;78.92
68634;BME280;55625;47.072;22.192;2024-02-26T08:28:06;99049.88;;;11.18;78.97
68634;BME280;55625;47.072;22.192;2024-02-26T08:30:32;99049.84;;;11.27;79.20
68634;BME280;55625;47.072;22.192;2024-02-26T08:32:59;99055.53;;;11.27;79.81
68634;BME280;55625;47.072;22.192;2024-02-26T08:35:25;99051.91;;;11.27;79.11
68634;BME280;55625;47.072;22.192;2024-02-26T08:37:51;99053.00;;;11.29;79.38
68634;BME280;55625;47.072;22.192;2024-02-26T08:40:17;99053.47;;;11.28;78.62
68634;BME280;55625;47.072;22.192;2024-02-26T08:42:45;99049.69;;;11.31;78.91
68634;BME280;55625;47.072;22.192;2024-02-26T08:45:11;99049.69;;;11.31;79.11
68634;BME280;55625;47.072;22.192;2024-02-26T08:47:38;99052.34;;;11.52;78.57
68634;BME280;55625;47.072;22.192;2024-02-26T08:50:05;99046.47;;;11.74;79.30
68634;BME280;55625;47.072;22.192;2024-02-26T08:52:31;99047.19;;;11.93;78.00
68634;BME280;55625;47.072;22.192;2024-02-26T08:54:57;99054.13;;;12.01;77.92
68634;BME280;55625;47.072;22.192;2024-02-26T08:57:23;99059.34;;;12.03;76.50
68634;BME280;55625;47.072;22.192;2024-02-26T08:59:49;99051.69;;;12.18;76.77
68634;BME280;55625;47.072;22.192;2024-02-26T09:02:15;99055.53;;;12.39;75.72
68634;BME280;55625;47.072;22.192;2024-02-26T09:04:41;99052.13;;;12.59;75.64
68634;BME280;55625;47.072;22.192;2024-02-26T09:07:07;99053.19;;;12.85;74.13
68634;BME280;55625;47.072;22.192;2024-02-26T09:09:33;99048.81;;;13.23;72.92
68634;BME280;55625;47.072;22.192;2024-02-26T09:11:59;99058.97;;;13.68;70.34
68634;BME280;55625;47.072;22.192;2024-02-26T09:14:25;99048.63;;;14.15;69.69
68634;BME280;55625;47.072;22.192;2024-02-26T09:16:51;99056.16;;;14.68;67.65
68634;BME280;55625;47.072;22.192;2024-02-26T09:19:18;99061.06;;;15.02;65.80
68634;BME280;55625;47.072;22.192;2024-02-26T09:21:44;99064.16;;;15.25;65.47
68634;BME280;55625;47.072;22.192;2024-02-26T09:24:12;99053.72;;;15.42;64.39
68634;BME280;55625;47.072;22.192;2024-02-26T09:26:38;99052.97;;;15.67;64.06
68634;BME280;55625;47.072;22.192;2024-02-26T09:29:04;99046.97;;;15.65;63.59
68634;BME280;55625;47.072;22.192;2024-02-26T09:31:31;99057.25;;;15.57;63.82
68634;BME280;55625;47.072;22.192;2024-02-26T09:33:57;99055.50;;;15.39;64.26
68634;BME280;55625;47.072;22.192;2024-02-26T09:36:23;99056.00;;;15.38;65.72
68634;BME280;55625;47.072;22.192;2024-02-26T09:38:49;99059.63;;;15.59;64.92
68634;BME280;55625;47.072;22.192;2024-02-26T09:41:15;99044.91;;;15.97;63.22
68634;BME280;55625;47.072;22.192;2024-02-26T09:43:45;99044.63;;;16.27;62.73
68634;BME280;55625;47.072;22.192;2024-02-26T09:46:14;99042.75;;;16.55;61.58
68634;BME280;55625;47.072;22.192;2024-02-26T09:48:43;99041.50;;;17.16;57.92
68634;BME280;55625;47.072;22.192;2024-02-26T09:51:11;99052.56;;;17.51;55.52
68634;BME280;55625;47.072;22.192;2024-02-26T09:53:38;99045.56;;;17.74;54.85
68634;BME280;55625;47.072;22.192;2024-02-26T09:56:08;99040.09;;;17.98;53.87
68634;BME280;55625;47.072;22.192;2024-02-26T09:58:35;99039.88;;;18.13;52.44
68634;BME280;55625;47.072;22.192;2024-02-26T10:01:03;99026.50;;;18.44;51.08
68634;BME280;55625;47.072;22.192;2024-02-26T10:03:50;99030.34;;;18.85;50.21
68634;BME280;55625;47.072;22.192;2024-02-26T10:06:17;99030.00;;;19.11;47.66
68634;BME280;55625;47.072;22.192;2024-02-26T10:08:43;99028.34;;;19.27;48.87
68634;BME280;55625;47.072;22.192;2024-02-26T10:11:10;99027.78;;;19.34;47.33
68634;BME280;55625;47.072;22.192;2024-02-26T10:13:36;99025.06;;;19.53;47.74
68634;BME280;55625;47.072;22.192;2024-02-26T10:16:03;99011.66;;;19.67;47.25
68634;BME280;55625;47.072;22.192;2024-02-26T10:18:56;99021.97;;;19.87;47.39
68634;BME280;55625;47.072;22.192;2024-02-26T10:21:22;99016.91;;;19.98;46.53
68634;BME280;55625;47.072;22.192;2024-02-26T10:23:49;99015.53;;;20.05;45.12
68634;BME280;55625;47.072;22.192;2024-02-26T10:26:19;99016.22;;;20.16;45.38
68634;BME280;55625;47.072;22.192;2024-02-26T10:28:46;99001.66;;;20.33;46.50
68634;BME280;55625;47.072;22.192;2024-02-26T10:31:14;99006.88;;;20.40;45.45
68634;BME280;55625;47.072;22.192;2024-02-26T10:33:42;99010.44;;;20.52;44.69
68634;BME280;55625;47.072;22.192;2024-02-26T10:36:08;99002.03;;;20.54;44.54
68634;BME280;55625;47.072;22.192;2024-02-26T10:38:36;99004.69;;;20.71;43.97
68634;BME280;55625;47.072;22.192;2024-02-26T10:41:23;99000.81;;;20.68;44.35
68634;BME280;55625;47.072;22.192;2024-02-26T10:43:49;99000.50;;;20.72;44.31
68634;BME280;55625;47.072;22.192;2024-02-26T10:46:15;98997.31;;;20.75;45.72
68634;BME280;55625;47.072;22.192;2024-02-26T10:48:50;98987.91;;;20.94;44.98
68634;BME280;55625;47.072;22.192;2024-02-26T10:51:20;98991.47;;;20.81;44.43
68634;BME280;55625;47.072;22.192;2024-02-26T10:53:50;98998.03;;;20.82;43.93
68634;BME280;55625;47.072;22.192;2024-02-26T10:56:20;98993.84;;;20.83;44.87
68634;BME280;55625;47.072;22.192;2024-02-26T10:58:48;98988.22;;;20.90;44.43
68634;BME280;55625;47.072;22.192;2024-02-26T11:01:14;98991.28;;;20.98;43.55
68634;BME280;55625;47.072;22.192;2024-02-26T11:03:40;98988.50;;;20.68;43.74
68634;BME280;55625;47.072;22.192;2024-02-26T11:06:07;98987.88;;;20.75;42.88
68634;BME280;55625;47.072;22.192;2024-02-26T11:08:34;98985.00;;;20.75;42.79
68634;BME280;55625;47.072;22.192;2024-02-26T11:11:01;98989.56;;;20.65;42.14
68634;BME280;55625;47.072;22.192;2024-02-26T11:13:31;98982.31;;;20.58;42.94
68634;BME280;55625;47.072;22.192;2024-02-26T11:15:59;98980.31;;;20.17;43.75
68634;BME280;55625;47.072;22.192;2024-02-26T11:18:27;98983.22;;;19.88;44.00
68634;BME280;55625;47.072;22.192;2024-02-26T11:20:54;98978.00;;;19.86;45.94
68634;BME280;55625;47.072;22.192;2024-02-26T11:23:23;98974.88;;;19.43;45.48
68634;BME280;55625;47.072;22.192;2024-02-26T11:25:51;98978.09;;;19.34;44.99
68634;BME280;55625;47.072;22.192;2024-02-26T11:28:19;98972.88;;;19.27;46.32
68634;BME280;55625;47.072;22.192;2024-02-26T11:30:48;98973.28;;;19.53;47.36
68634;BME280;55625;47.072;22.192;2024-02-26T11:33:15;98978.75;;;19.87;45.26
68634;BME280;55625;47.072;22.192;2024-02-26T11:35:42;98967.47;;;19.59;45.26
68634;BME280;55625;47.072;22.192;2024-02-26T11:38:08;98968.19;;;19.29;45.99
68634;BME280;55625;47.072;22.192;2024-02-26T11:40:43;98965.59;;;19.20;46.03
68634;BME280;55625;47.072;22.192;2024-02-26T11:43:10;98971.41;;;19.14;45.91
68634;BME280;55625;47.072;22.192;2024-02-26T11:48:15;98963.59;;;19.09;47.42
68634;BME280;55625;47.072;22.192;2024-02-26T11:50:53;98960.91;;;19.17;46.93
68634;BME280;55625;47.072;22.192;2024-02-26T11:53:27;98952.94;;;18.99;46.63
68634;BME280;55625;47.072;22.192;2024-02-26T11:58:47;98951.44;;;19.28;46.26
68634;BME280;55625;47.072;22.192;2024-02-26T12:01:41;98943.31;;;19.32;46.00
68634;BME280;55625;47.072;22.192;2024-02-26T12:04:22;98947.56;;;19.19;46.46
68634;BME280;55625;47.072;22.192;2024-02-26T12:06:57;98948.59;;;19.22;45.99
68634;BME280;55625;47.072;22.192;2024-02-26T12:09:51;98941.44;;;18.99;46.74
68634;BME280;55625;47.072;22.192;2024-02-26T12:12:21;98948.75;;;19.00;47.27
68634;BME280;55625;47.072;22.192;2024-02-26T12:14:58;98948.22;;;18.96;47.63
68634;BME280;55625;47.072;22.192;2024-02-26T12:17:25;98943.78;;;19.00;47.38
68634;BME280;55625;47.072;22.192;2024-02-26T12:19:51;98937.78;;;18.92;46.94
68634;BME280;55625;47.072;22.192;2024-02-26T12:22:19;98935.69;;;18.99;46.74
68634;BME280;55625;47.072;22.192;2024-02-26T12:24:45;98937.66;;;19.15;47.26
68634;BME280;55625;47.072;22.192;2024-02-26T12:27:12;98944.47;;;19.12;46.72
68634;BME280;55625;47.072;22.192;2024-02-26T12:29:38;98937.78;;;18.98;47.36
68634;BME280;55625;47.072;22.192;2024-02-26T12:32:05;98928.38;;;18.92;47.03
68634;BME280;55625;47.072;22.192;2024-02-26T12:34:32;98938.81;;;18.95;46.07
68634;BME280;55625;47.072;22.192;2024-02-26T12:36:58;98931.31;;;18.81;46.48
68634;BME280;55625;47.072;22.192;2024-02-26T12:39:24;98944.66;;;18.78;45.24
68634;BME280;55625;47.072;22.192;2024-02-26T12:41:50;98939.97;;;18.75;46.15
68634;BME280;55625;47.072;22.192;2024-02-26T12:44:18;98934.94;;;18.87;46.04
68634;BME280;55625;47.072;22.192;2024-02-26T12:46:44;98935.16;;;19.00;44.80
68634;BME280;55625;47.072;22.192;2024-02-26T12:49:15;98920.50;;;18.98;44.73
68634;BME280;55625;47.072;22.192;2024-02-26T12:51:44;98925.19;;;19.01;44.68
68634;BME280;55625;47.072;22.192;2024-02-26T12:54:11;98926.50;;;19.00;45.06